sensor_id;sensor_type;location;lat;lon;timestamp;temperature;humidity
45104;DHT22;30865;51.288;4.572;2023-06-10T00:01:53;18.50;97.20
45104;DHT22;30865;51.288;4.572;2023-06-10T00:04:25;18.50;97.40
45104;DHT22;30865;51.288;4.572;2023-06-10T00:06:51;18.50;97.30
45104;DHT22;30865;51.288;4.572;2023-06-10T00:09:16;18.50;97.80
45104;DHT22;30865;51.288;4.572;2023-06-10T00:11:43;18.50;98.10
45104;DHT22;30865;51.288;4.572;2023-06-10T00:14:09;18.50;98.80
45104;DHT22;30865;51.288;4.572;2023-06-10T00:16:35;18.50;99.90
45104;DHT22;30865;51.288;4.572;2023-06-10T00:19:04;18.40;99.90
45104;DHT22;30865;51.288;4.572;2023-06-10T00:21:33;18.40;99.90
45104;DHT22;30865;51.288;4.572;2023-06-10T00:24:08;18.30;99.90
45104;DHT22;30865;51.288;4.572;2023-06-10T00:26:39;18.30;99.90
45104;DHT22;30865;51.288;4.572;2023-06-10T00:29:05;18.30;99.90
45104;DHT22;30865;51.288;4.572;2023-06-10T00:31:31;18.20;99.90
45104;DHT22;30865;51.288;4.572;2023-06-10T00:33:56;18.20;99.90
45104;DHT22;30865;51.288;4.572;2023-06-10T00:36:24;18.00;99.90
45104;DHT22;30865;51.288;4.572;2023-06-10T00:38:49;18.00;99.90
45104;DHT22;30865;51.288;4.572;2023-06-10T00:41:15;17.90;99.90
45104;DHT22;30865;51.288;4.572;2023-06-10T00:43:40;18.00;99.90
45104;DHT22;30865;51.288;4.572;2023-06-10T00:46:06;17.90;99.90
45104;DHT22;30865;51.288;4.572;2023-06-10T00:48:32;17.90;99.90
45104;DHT22;30865;51.288;4.572;2023-06-10T00:50:58;17.90;99.90
45104;DHT22;30865;51.288;4.572;2023-06-10T00:53:24;17.80;99.90
45104;DHT22;30865;51.288;4.572;2023-06-10T00:55:50;17.80;99.90
45104;DHT22;30865;51.288;4.572;2023-06-10T00:58:16;17.80;99.90
45104;DHT22;30865;51.288;4.572;2023-06-10T01:00:42;17.90;99.90
45104;DHT22;30865;51.288;4.572;2023-06-10T01:03:07;17.90;99.90
45104;DHT22;30865;51.288;4.572;2023-06-10T01:05:34;17.80;99.90
45104;DHT22;30865;51.288;4.572;2023-06-10T01:08:09;17.80;99.90
45104;DHT22;30865;51.288;4.572;2023-06-10T01:10:41;17.80;99.90
45104;DHT22;30865;51.288;4.572;2023-06-10T01:13:11;17.70;99.90
45104;DHT22;30865;51.288;4.572;2023-06-10T01:15:37;17.60;99.90
45104;DHT22;30865;51.288;4.572;2023-06-10T01:18:04;17.60;99.90
45104;DHT22;30865;51.288;4.572;2023-06-10T01:20:34;17.50;99.90
45104;DHT22;30865;51.288;4.572;2023-06-10T01:23:01;17.40;99.90
45104;DHT22;30865;51.288;4.572;2023-06-10T01:25:29;17.40;99.90
45104;DHT22;30865;51.288;4.572;2023-06-10T01:28:18;17.40;99.90
45104;DHT22;30865;51.288;4.572;2023-06-10T01:31:05;17.50;99.90
45104;DHT22;30865;51.288;4.572;2023-06-10T01:33:37;17.40;99.90
45104;DHT22;30865;51.288;4.572;2023-06-10T01:36:04;17.40;99.90
45104;DHT22;30865;51.288;4.572;2023-06-10T01:38:33;17.50;99.90
45104;DHT22;30865;51.288;4.572;2023-06-10T01:40:59;17.50;99.90
45104;DHT22;30865;51.288;4.572;2023-06-10T01:43:25;17.40;99.90
45104;DHT22;30865;51.288;4.572;2023-06-10T01:45:51;17.40;99.90
45104;DHT22;30865;51.288;4.572;2023-06-10T01:48:17;17.40;99.90
45104;DHT22;30865;51.288;4.572;2023-06-10T01:50:42;17.40;99.90
45104;DHT22;30865;51.288;4.572;2023-06-10T01:53:09;17.30;99.90
45104;DHT22;30865;51.288;4.572;2023-06-10T01:55:35;17.20;99.90
45104;DHT22;30865;51.288;4.572;2023-06-10T01:58:00;17.20;99.90
45104;DHT22;30865;51.288;4.572;2023-06-10T02:00:26;17.20;99.90
45104;DHT22;30865;51.288;4.572;2023-06-10T02:02:51;17.20;99.90
45104;DHT22;30865;51.288;4.572;2023-06-10T02:05:17;17.10;99.90
45104;DHT22;30865;51.288;4.572;2023-06-10T02:07:42;17.00;99.90
45104;DHT22;30865;51.288;4.572;2023-06-10T02:10:08;17.10;99.90
45104;DHT22;30865;51.288;4.572;2023-06-10T02:12:33;17.00;99.90
45104;DHT22;30865;51.288;4.572;2023-06-10T02:14:59;17.10;99.90
45104;DHT22;30865;51.288;4.572;2023-06-10T02:17:25;17.00;99.90
45104;DHT22;30865;51.288;4.572;2023-06-10T02:19:50;16.90;99.90
45104;DHT22;30865;51.288;4.572;2023-06-10T02:22:22;16.90;99.90
45104;DHT22;30865;51.288;4.572;2023-06-10T02:24:47;16.90;99.90
45104;DHT22;30865;51.288;4.572;2023-06-10T02:27:14;16.90;99.90
45104;DHT22;30865;51.288;4.572;2023-06-10T02:29:39;16.80;99.90
45104;DHT22;30865;51.288;4.572;2023-06-10T02:32:06;16.80;99.90
45104;DHT22;30865;51.288;4.572;2023-06-10T02:34:32;16.90;99.90
45104;DHT22;30865;51.288;4.572;2023-06-10T02:36:59;16.80;99.90
45104;DHT22;30865;51.288;4.572;2023-06-10T02:39:27;16.80;99.90
45104;DHT22;30865;51.288;4.572;2023-06-10T02:41:53;16.80;99.90
45104;DHT22;30865;51.288;4.572;2023-06-10T02:44:18;16.60;99.90
45104;DHT22;30865;51.288;4.572;2023-06-10T02:46:44;16.60;99.90
45104;DHT22;30865;51.288;4.572;2023-06-10T02:49:10;16.60;99.90
45104;DHT22;30865;51.288;4.572;2023-06-10T02:51:36;16.60;99.90
45104;DHT22;30865;51.288;4.572;2023-06-10T02:54:02;16.60;99.90
45104;DHT22;30865;51.288;4.572;2023-06-10T02:56:27;16.60;99.90
45104;DHT22;30865;51.288;4.572;2023-06-10T02:58:53;16.60;99.90
45104;DHT22;30865;51.288;4.572;2023-06-10T03:01:18;16.70;99.90
45104;DHT22;30865;51.288;4.572;2023-06-10T03:03:45;16.70;99.90
45104;DHT22;30865;51.288;4.572;2023-06-10T03:06:12;16.50;99.90
45104;DHT22;30865;51.288;4.572;2023-06-10T03:08:38;16.50;99.90
45104;DHT22;30865;51.288;4.572;2023-06-10T03:11:04;16.40;99.90
45104;DHT22;30865;51.288;4.572;2023-06-10T03:13:30;16.40;99.90
45104;DHT22;30865;51.288;4.572;2023-06-10T03:15:55;16.40;99.90
45104;DHT22;30865;51.288;4.572;2023-06-10T03:18:25;16.40;99.90
45104;DHT22;30865;51.288;4.572;2023-06-10T03:20:54;16.40;99.90
45104;DHT22;30865;51.288;4.572;2023-06-10T03:23:20;16.50;99.90
45104;DHT22;30865;51.288;4.572;2023-06-10T03:25:46;16.30;99.90
45104;DHT22;30865;51.288;4.572;2023-06-10T03:28:11;16.30;99.90
45104;DHT22;30865;51.288;4.572;2023-06-10T03:30:37;16.30;99.90
45104;DHT22;30865;51.288;4.572;2023-06-10T03:33:02;16.30;99.90
45104;DHT22;30865;51.288;4.572;2023-06-10T03:35:29;16.40;99.90
45104;DHT22;30865;51.288;4.572;2023-06-10T03:37:55;16.40;99.90
45104;DHT22;30865;51.288;4.572;2023-06-10T03:40:21;16.50;99.90
45104;DHT22;30865;51.288;4.572;2023-06-10T03:42:46;16.50;99.90
45104;DHT22;30865;51.288;4.572;2023-06-10T03:45:12;16.60;99.90
45104;DHT22;30865;51.288;4.572;2023-06-10T03:47:38;16.40;99.90
45104;DHT22;30865;51.288;4.572;2023-06-10T03:50:06;16.40;99.90
45104;DHT22;30865;51.288;4.572;2023-06-10T03:52:33;16.30;99.90
45104;DHT22;30865;51.288;4.572;2023-06-10T03:54:59;16.40;99.90
45104;DHT22;30865;51.288;4.572;2023-06-10T03:57:24;16.40;99.90
45104;DHT22;30865;51.288;4.572;2023-06-10T03:59:51;16.50;99.90
45104;DHT22;30865;51.288;4.572;2023-06-10T04:02:16;16.50;99.90
45104;DHT22;30865;51.288;4.572;2023-06-10T04:04:41;16.50;99.90
45104;DHT22;30865;51.288;4.572;2023-06-10T04:07:08;16.50;99.90
45104;DHT22;30865;51.288;4.572;2023-06-10T04:09:34;16.40;99.90
45104;DHT22;30865;51.288;4.572;2023-06-10T04:12:01;16.40;99.90
45104;DHT22;30865;51.288;4.572;2023-06-10T04:14:26;16.50;99.90
45104;DHT22;30865;51.288;4.572;2023-06-10T04:16:53;16.50;99.90
45104;DHT22;30865;51.288;4.572;2023-06-10T04:19:18;16.50;99.90
45104;DHT22;30865;51.288;4.572;2023-06-10T04:21:44;16.40;99.90
45104;DHT22;30865;51.288;4.572;2023-06-10T04:24:09;16.40;99.90
45104;DHT22;30865;51.288;4.572;2023-06-10T04:26:35;16.40;99.90
45104;DHT22;30865;51.288;4.572;2023-06-10T04:29:01;16.50;99.90
45104;DHT22;30865;51.288;4.572;2023-06-10T04:31:26;16.60;99.90
45104;DHT22;30865;51.288;4.572;2023-06-10T04:33:53;16.70;99.90
45104;DHT22;30865;51.288;4.572;2023-06-10T04:36:18;16.80;99.90
45104;DHT22;30865;51.288;4.572;2023-06-10T04:38:44;16.90;99.90
45104;DHT22;30865;51.288;4.572;2023-06-10T04:41:09;17.00;99.90
45104;DHT22;30865;51.288;4.572;2023-06-10T04:43:35;17.20;99.90
45104;DHT22;30865;51.288;4.572;2023-06-10T04:46:00;16.90;99.90
45104;DHT22;30865;51.288;4.572;2023-06-10T04:48:26;16.90;99.90
45104;DHT22;30865;51.288;4.572;2023-06-10T04:50:52;16.90;99.90
45104;DHT22;30865;51.288;4.572;2023-06-10T04:53:18;16.90;99.90
45104;DHT22;30865;51.288;4.572;2023-06-10T04:55:43;17.00;99.90
45104;DHT22;30865;51.288;4.572;2023-06-10T04:58:09;17.00;99.90
45104;DHT22;30865;51.288;4.572;2023-06-10T05:00:34;17.20;99.90
45104;DHT22;30865;51.288;4.572;2023-06-10T05:03:00;17.30;99.90
45104;DHT22;30865;51.288;4.572;2023-06-10T05:05:26;17.50;99.90
45104;DHT22;30865;51.288;4.572;2023-06-10T05:07:51;17.60;99.90
45104;DHT22;30865;51.288;4.572;2023-06-10T05:10:17;17.60;99.90
45104;DHT22;30865;51.288;4.572;2023-06-10T05:12:42;17.70;99.90
45104;DHT22;30865;51.288;4.572;2023-06-10T05:15:08;17.70;99.90
45104;DHT22;30865;51.288;4.572;2023-06-10T05:17:34;17.90;99.90
45104;DHT22;30865;51.288;4.572;2023-06-10T05:20:03;17.90;99.90
45104;DHT22;30865;51.288;4.572;2023-06-10T05:22:29;17.90;99.90
45104;DHT22;30865;51.288;4.572;2023-06-10T05:24:55;17.90;99.90
45104;DHT22;30865;51.288;4.572;2023-06-10T05:27:20;17.90;99.90
45104;DHT22;30865;51.288;4.572;2023-06-10T05:29:47;18.00;99.90
45104;DHT22;30865;51.288;4.572;2023-06-10T05:32:12;18.30;99.90
45104;DHT22;30865;51.288;4.572;2023-06-10T05:34:38;18.50;99.90
45104;DHT22;30865;51.288;4.572;2023-06-10T05:37:04;18.60;99.90
45104;DHT22;30865;51.288;4.572;2023-06-10T05:39:29;18.70;99.90
45104;DHT22;30865;51.288;4.572;2023-06-10T05:41:55;19.10;99.90
45104;DHT22;30865;51.288;4.572;2023-06-10T05:44:20;19.20;99.90
45104;DHT22;30865;51.288;4.572;2023-06-10T05:46:46;19.40;99.90
45104;DHT22;30865;51.288;4.572;2023-06-10T05:49:11;19.60;99.90
45104;DHT22;30865;51.288;4.572;2023-06-10T05:51:37;19.80;99.90
45104;DHT22;30865;51.288;4.572;2023-06-10T05:54:03;19.90;99.90
45104;DHT22;30865;51.288;4.572;2023-06-10T05:56:29;20.20;99.90
45104;DHT22;30865;51.288;4.572;2023-06-10T05:58:54;20.30;99.90
45104;DHT22;30865;51.288;4.572;2023-06-10T06:01:20;20.50;99.90
45104;DHT22;30865;51.288;4.572;2023-06-10T06:03:45;20.50;99.90
45104;DHT22;30865;51.288;4.572;2023-06-10T06:06:11;20.70;99.90
45104;DHT22;30865;51.288;4.572;2023-06-10T06:08:37;20.80;99.90
45104;DHT22;30865;51.288;4.572;2023-06-10T06:11:02;21.00;99.90
45104;DHT22;30865;51.288;4.572;2023-06-10T06:13:27;21.30;99.90
45104;DHT22;30865;51.288;4.572;2023-06-10T06:15:53;21.40;99.90
45104;DHT22;30865;51.288;4.572;2023-06-10T06:18:19;21.30;99.90
45104;DHT22;30865;51.288;4.572;2023-06-10T06:20:44;21.40;99.90
45104;DHT22;30865;51.288;4.572;2023-06-10T06:23:10;21.20;99.90
45104;DHT22;30865;51.288;4.572;2023-06-10T06:25:36;21.70;99.80
45104;DHT22;30865;51.288;4.572;2023-06-10T06:28:05;21.70;99.70
45104;DHT22;30865;51.288;4.572;2023-06-10T06:30:31;21.80;99.60
45104;DHT22;30865;51.288;4.572;2023-06-10T06:32:56;22.20;98.30
45104;DHT22;30865;51.288;4.572;2023-06-10T06:35:22;22.00;98.70
45104;DHT22;30865;51.288;4.572;2023-06-10T06:37:47;22.10;97.80
45104;DHT22;30865;51.288;4.572;2023-06-10T06:40:13;22.50;97.20
45104;DHT22;30865;51.288;4.572;2023-06-10T06:42:39;22.30;96.20
45104;DHT22;30865;51.288;4.572;2023-06-10T06:45:05;22.50;96.30
45104;DHT22;30865;51.288;4.572;2023-06-10T06:47:30;22.60;96.00
45104;DHT22;30865;51.288;4.572;2023-06-10T06:49:56;22.70;95.40
45104;DHT22;30865;51.288;4.572;2023-06-10T06:52:21;22.50;94.90
45104;DHT22;30865;51.288;4.572;2023-06-10T06:54:47;22.80;94.90
45104;DHT22;30865;51.288;4.572;2023-06-10T06:57:13;23.00;94.40
45104;DHT22;30865;51.288;4.572;2023-06-10T06:59:38;22.70;94.90
45104;DHT22;30865;51.288;4.572;2023-06-10T07:02:04;22.90;95.20
45104;DHT22;30865;51.288;4.572;2023-06-10T07:04:30;22.70;94.10
45104;DHT22;30865;51.288;4.572;2023-06-10T07:06:56;22.90;93.60
45104;DHT22;30865;51.288;4.572;2023-06-10T07:09:21;22.80;93.60
45104;DHT22;30865;51.288;4.572;2023-06-10T07:11:47;23.20;93.10
45104;DHT22;30865;51.288;4.572;2023-06-10T07:14:12;23.20;92.20
45104;DHT22;30865;51.288;4.572;2023-06-10T07:16:38;23.40;92.20
45104;DHT22;30865;51.288;4.572;2023-06-10T07:19:03;23.50;91.80
45104;DHT22;30865;51.288;4.572;2023-06-10T07:21:30;23.50;91.50
45104;DHT22;30865;51.288;4.572;2023-06-10T07:23:55;23.60;91.60
45104;DHT22;30865;51.288;4.572;2023-06-10T07:26:22;23.70;91.50
45104;DHT22;30865;51.288;4.572;2023-06-10T07:28:51;23.70;90.40
45104;DHT22;30865;51.288;4.572;2023-06-10T07:31:16;23.70;90.10
45104;DHT22;30865;51.288;4.572;2023-06-10T07:33:42;23.70;90.40
45104;DHT22;30865;51.288;4.572;2023-06-10T07:36:09;23.70;90.70
45104;DHT22;30865;51.288;4.572;2023-06-10T07:38:34;23.70;90.50
45104;DHT22;30865;51.288;4.572;2023-06-10T07:41:00;23.90;89.80
45104;DHT22;30865;51.288;4.572;2023-06-10T07:43:26;24.00;88.50
45104;DHT22;30865;51.288;4.572;2023-06-10T07:45:51;23.90;87.20
45104;DHT22;30865;51.288;4.572;2023-06-10T07:48:17;24.10;87.00
45104;DHT22;30865;51.288;4.572;2023-06-10T07:50:43;24.20;86.80
45104;DHT22;30865;51.288;4.572;2023-06-10T07:53:08;24.30;86.80
45104;DHT22;30865;51.288;4.572;2023-06-10T07:55:34;24.50;85.10
45104;DHT22;30865;51.288;4.572;2023-06-10T07:57:59;24.60;84.50
45104;DHT22;30865;51.288;4.572;2023-06-10T08:00:25;24.60;86.40
45104;DHT22;30865;51.288;4.572;2023-06-10T08:02:50;24.80;84.10
45104;DHT22;30865;51.288;4.572;2023-06-10T08:05:17;24.80;83.30
45104;DHT22;30865;51.288;4.572;2023-06-10T08:07:44;25.20;83.00
45104;DHT22;30865;51.288;4.572;2023-06-10T08:10:10;24.90;83.20
45104;DHT22;30865;51.288;4.572;2023-06-10T08:12:36;24.90;83.70
45104;DHT22;30865;51.288;4.572;2023-06-10T08:15:02;25.00;82.40
45104;DHT22;30865;51.288;4.572;2023-06-10T08:17:29;24.90;81.70
45104;DHT22;30865;51.288;4.572;2023-06-10T08:19:55;25.10;81.50
45104;DHT22;30865;51.288;4.572;2023-06-10T08:22:21;25.00;81.50
45104;DHT22;30865;51.288;4.572;2023-06-10T08:24:46;24.70;80.90
45104;DHT22;30865;51.288;4.572;2023-06-10T08:27:12;25.00;80.70
45104;DHT22;30865;51.288;4.572;2023-06-10T08:29:38;25.70;78.20
45104;DHT22;30865;51.288;4.572;2023-06-10T08:32:04;26.20;75.50
45104;DHT22;30865;51.288;4.572;2023-06-10T08:34:30;26.20;73.60
45104;DHT22;30865;51.288;4.572;2023-06-10T08:36:55;26.20;72.50
45104;DHT22;30865;51.288;4.572;2023-06-10T08:39:23;25.80;73.00
45104;DHT22;30865;51.288;4.572;2023-06-10T08:44:29;25.90;72.10
45104;DHT22;30865;51.288;4.572;2023-06-10T08:46:59;25.70;71.70
45104;DHT22;30865;51.288;4.572;2023-06-10T08:49:26;25.70;70.90
45104;DHT22;30865;51.288;4.572;2023-06-10T08:51:59;25.80;70.80
45104;DHT22;30865;51.288;4.572;2023-06-10T08:54:28;26.10;69.50
45104;DHT22;30865;51.288;4.572;2023-06-10T08:56:57;26.30;68.20
45104;DHT22;30865;51.288;4.572;2023-06-10T08:59:25;26.30;66.50
45104;DHT22;30865;51.288;4.572;2023-06-10T09:01:51;25.70;66.40
45104;DHT22;30865;51.288;4.572;2023-06-10T09:04:18;25.40;68.40
45104;DHT22;30865;51.288;4.572;2023-06-10T09:06:44;25.80;67.30
45104;DHT22;30865;51.288;4.572;2023-06-10T09:09:12;25.80;66.10
45104;DHT22;30865;51.288;4.572;2023-06-10T09:11:38;25.60;66.40
45104;DHT22;30865;51.288;4.572;2023-06-10T09:14:04;25.70;66.00
45104;DHT22;30865;51.288;4.572;2023-06-10T09:16:30;25.90;65.80
45104;DHT22;30865;51.288;4.572;2023-06-10T09:18:56;25.80;65.80
45104;DHT22;30865;51.288;4.572;2023-06-10T09:21:24;26.30;64.60
45104;DHT22;30865;51.288;4.572;2023-06-10T09:23:51;26.50;63.40
45104;DHT22;30865;51.288;4.572;2023-06-10T09:26:17;26.40;63.20
45104;DHT22;30865;51.288;4.572;2023-06-10T09:28:48;26.10;65.00
45104;DHT22;30865;51.288;4.572;2023-06-10T09:31:15;26.10;66.40
45104;DHT22;30865;51.288;4.572;2023-06-10T09:33:44;26.40;65.20
45104;DHT22;30865;51.288;4.572;2023-06-10T09:36:10;26.30;64.70
45104;DHT22;30865;51.288;4.572;2023-06-10T09:38:35;26.40;63.10
45104;DHT22;30865;51.288;4.572;2023-06-10T09:41:02;26.10;63.80
45104;DHT22;30865;51.288;4.572;2023-06-10T09:43:44;26.10;63.60
45104;DHT22;30865;51.288;4.572;2023-06-10T09:46:18;25.70;64.70
45104;DHT22;30865;51.288;4.572;2023-06-10T09:48:44;25.90;64.10
45104;DHT22;30865;51.288;4.572;2023-06-10T09:51:11;26.30;63.00
45104;DHT22;30865;51.288;4.572;2023-06-10T09:53:37;27.00;59.70
45104;DHT22;30865;51.288;4.572;2023-06-10T09:56:03;27.00;59.60
45104;DHT22;30865;51.288;4.572;2023-06-10T09:58:38;26.80;59.40
45104;DHT22;30865;51.288;4.572;2023-06-10T10:01:06;27.10;58.60
45104;DHT22;30865;51.288;4.572;2023-06-10T10:03:32;26.80;60.60
45104;DHT22;30865;51.288;4.572;2023-06-10T10:06:00;26.80;61.30
45104;DHT22;30865;51.288;4.572;2023-06-10T10:08:26;26.90;60.60
45104;DHT22;30865;51.288;4.572;2023-06-10T10:10:52;26.80;61.20
45104;DHT22;30865;51.288;4.572;2023-06-10T10:13:18;27.20;59.90
45104;DHT22;30865;51.288;4.572;2023-06-10T10:15:45;27.40;58.80
45104;DHT22;30865;51.288;4.572;2023-06-10T10:18:14;27.60;57.40
45104;DHT22;30865;51.288;4.572;2023-06-10T10:20:50;27.80;56.60
45104;DHT22;30865;51.288;4.572;2023-06-10T10:23:33;27.70;56.40
45104;DHT22;30865;51.288;4.572;2023-06-10T10:26:00;27.40;55.80
45104;DHT22;30865;51.288;4.572;2023-06-10T10:28:34;27.40;56.70
45104;DHT22;30865;51.288;4.572;2023-06-10T10:31:08;27.30;57.10
45104;DHT22;30865;51.288;4.572;2023-06-10T10:33:59;27.60;55.80
45104;DHT22;30865;51.288;4.572;2023-06-10T10:36:25;28.20;54.80
45104;DHT22;30865;51.288;4.572;2023-06-10T10:38:51;28.20;53.70
45104;DHT22;30865;51.288;4.572;2023-06-10T10:41:18;28.30;53.20
45104;DHT22;30865;51.288;4.572;2023-06-10T10:43:44;27.90;54.20
45104;DHT22;30865;51.288;4.572;2023-06-10T10:46:15;27.60;54.90
45104;DHT22;30865;51.288;4.572;2023-06-10T10:48:42;27.90;54.30
45104;DHT22;30865;51.288;4.572;2023-06-10T10:51:09;27.50;53.90
45104;DHT22;30865;51.288;4.572;2023-06-10T10:53:37;27.90;53.80
45104;DHT22;30865;51.288;4.572;2023-06-10T10:56:16;28.30;52.50
45104;DHT22;30865;51.288;4.572;2023-06-10T10:59:06;28.30;51.80
45104;DHT22;30865;51.288;4.572;2023-06-10T11:01:42;28.60;51.00
45104;DHT22;30865;51.288;4.572;2023-06-10T11:04:11;28.60;51.00
45104;DHT22;30865;51.288;4.572;2023-06-10T11:06:37;29.00;49.30
45104;DHT22;30865;51.288;4.572;2023-06-10T11:09:26;29.30;48.90
45104;DHT22;30865;51.288;4.572;2023-06-10T11:11:57;28.40;51.10
45104;DHT22;30865;51.288;4.572;2023-06-10T11:14:28;28.50;51.10
45104;DHT22;30865;51.288;4.572;2023-06-10T11:16:57;28.70;51.10
45104;DHT22;30865;51.288;4.572;2023-06-10T11:19:33;28.20;51.10
45104;DHT22;30865;51.288;4.572;2023-06-10T11:22:01;28.00;51.20
45104;DHT22;30865;51.288;4.572;2023-06-10T11:24:29;27.90;51.50
45104;DHT22;30865;51.288;4.572;2023-06-10T11:26:55;27.40;52.90
45104;DHT22;30865;51.288;4.572;2023-06-10T11:29:21;27.10;54.00
45104;DHT22;30865;51.288;4.572;2023-06-10T11:31:50;27.50;53.60
45104;DHT22;30865;51.288;4.572;2023-06-10T11:34:22;27.70;53.50
45104;DHT22;30865;51.288;4.572;2023-06-10T11:36:52;28.20;51.60
45104;DHT22;30865;51.288;4.572;2023-06-10T11:39:20;28.40;51.10
45104;DHT22;30865;51.288;4.572;2023-06-10T11:41:45;28.70;50.60
45104;DHT22;30865;51.288;4.572;2023-06-10T11:44:13;28.20;51.00
45104;DHT22;30865;51.288;4.572;2023-06-10T11:46:39;28.80;50.60
45104;DHT22;30865;51.288;4.572;2023-06-10T11:49:06;28.90;50.20
45104;DHT22;30865;51.288;4.572;2023-06-10T11:51:36;28.10;51.00
45104;DHT22;30865;51.288;4.572;2023-06-10T11:54:03;28.40;50.50
45104;DHT22;30865;51.288;4.572;2023-06-10T11:56:30;29.20;49.00
45104;DHT22;30865;51.288;4.572;2023-06-10T11:58:59;29.30;48.10
45104;DHT22;30865;51.288;4.572;2023-06-10T12:01:29;29.50;48.60
45104;DHT22;30865;51.288;4.572;2023-06-10T12:04:00;29.60;47.00
45104;DHT22;30865;51.288;4.572;2023-06-10T12:06:25;30.00;46.70
45104;DHT22;30865;51.288;4.572;2023-06-10T12:08:51;30.60;46.10
45104;DHT22;30865;51.288;4.572;2023-06-10T12:11:16;30.00;46.00
45104;DHT22;30865;51.288;4.572;2023-06-10T12:13:46;29.50;45.60
45104;DHT22;30865;51.288;4.572;2023-06-10T12:16:14;29.60;45.20
45104;DHT22;30865;51.288;4.572;2023-06-10T12:18:39;29.80;45.60
45104;DHT22;30865;51.288;4.572;2023-06-10T12:21:24;29.30;45.90
45104;DHT22;30865;51.288;4.572;2023-06-10T12:24:10;29.40;46.50
45104;DHT22;30865;51.288;4.572;2023-06-10T12:26:43;29.60;46.50
45104;DHT22;30865;51.288;4.572;2023-06-10T12:29:24;29.70;45.80
45104;DHT22;30865;51.288;4.572;2023-06-10T12:31:59;30.30;45.10
45104;DHT22;30865;51.288;4.572;2023-06-10T12:34:33;29.60;46.20
45104;DHT22;30865;51.288;4.572;2023-06-10T12:37:00;29.90;45.20
45104;DHT22;30865;51.288;4.572;2023-06-10T12:39:26;29.50;46.10
45104;DHT22;30865;51.288;4.572;2023-06-10T12:41:52;29.50;46.10
45104;DHT22;30865;51.288;4.572;2023-06-10T12:44:18;29.40;46.80
45104;DHT22;30865;51.288;4.572;2023-06-10T12:46:43;28.90;47.30
45104;DHT22;30865;51.288;4.572;2023-06-10T12:49:19;28.70;47.90
45104;DHT22;30865;51.288;4.572;2023-06-10T12:51:45;28.50;48.30
45104;DHT22;30865;51.288;4.572;2023-06-10T12:54:10;29.20;46.70
45104;DHT22;30865;51.288;4.572;2023-06-10T12:56:36;29.50;45.90
45104;DHT22;30865;51.288;4.572;2023-06-10T12:59:02;29.40;46.20
45104;DHT22;30865;51.288;4.572;2023-06-10T13:01:28;28.90;46.60
45104;DHT22;30865;51.288;4.572;2023-06-10T13:03:54;29.50;46.70
45104;DHT22;30865;51.288;4.572;2023-06-10T13:06:19;30.20;44.40
45104;DHT22;30865;51.288;4.572;2023-06-10T13:08:45;30.50;44.10
45104;DHT22;30865;51.288;4.572;2023-06-10T13:11:12;30.30;43.80
45104;DHT22;30865;51.288;4.572;2023-06-10T13:13:37;30.30;43.20
45104;DHT22;30865;51.288;4.572;2023-06-10T13:16:03;30.10;43.10
45104;DHT22;30865;51.288;4.572;2023-06-10T13:18:28;30.40;43.00
45104;DHT22;30865;51.288;4.572;2023-06-10T13:20:54;30.30;43.20
45104;DHT22;30865;51.288;4.572;2023-06-10T13:23:20;30.00;43.90
45104;DHT22;30865;51.288;4.572;2023-06-10T13:25:45;30.00;43.00
45104;DHT22;30865;51.288;4.572;2023-06-10T13:28:11;30.50;42.70
45104;DHT22;30865;51.288;4.572;2023-06-10T13:30:37;30.60;41.90
45104;DHT22;30865;51.288;4.572;2023-06-10T13:33:02;30.70;42.20
45104;DHT22;30865;51.288;4.572;2023-06-10T13:35:28;31.30;41.20
45104;DHT22;30865;51.288;4.572;2023-06-10T13:37:53;31.60;41.20
45104;DHT22;30865;51.288;4.572;2023-06-10T13:40:19;30.10;42.20
45104;DHT22;30865;51.288;4.572;2023-06-10T13:42:45;30.00;43.00
45104;DHT22;30865;51.288;4.572;2023-06-10T13:45:15;29.90;42.90
45104;DHT22;30865;51.288;4.572;2023-06-10T13:47:41;29.50;43.20
45104;DHT22;30865;51.288;4.572;2023-06-10T13:50:07;30.20;41.60
45104;DHT22;30865;51.288;4.572;2023-06-10T13:52:32;30.30;41.50
45104;DHT22;30865;51.288;4.572;2023-06-10T13:54:58;31.00;40.50
45104;DHT22;30865;51.288;4.572;2023-06-10T13:57:23;32.10;39.10
45104;DHT22;30865;51.288;4.572;2023-06-10T13:59:49;31.50;39.90
45104;DHT22;30865;51.288;4.572;2023-06-10T14:02:15;31.40;40.80
45104;DHT22;30865;51.288;4.572;2023-06-10T14:04:42;30.20;42.40
45104;DHT22;30865;51.288;4.572;2023-06-10T14:07:07;29.80;44.00
45104;DHT22;30865;51.288;4.572;2023-06-10T14:09:33;29.30;44.80
45104;DHT22;30865;51.288;4.572;2023-06-10T14:11:58;28.90;44.80
45104;DHT22;30865;51.288;4.572;2023-06-10T14:14:23;29.40;44.80
45104;DHT22;30865;51.288;4.572;2023-06-10T14:16:49;29.90;44.50
45104;DHT22;30865;51.288;4.572;2023-06-10T14:19:15;30.00;43.40
45104;DHT22;30865;51.288;4.572;2023-06-10T14:21:40;30.70;42.80
45104;DHT22;30865;51.288;4.572;2023-06-10T14:24:06;30.90;41.70
45104;DHT22;30865;51.288;4.572;2023-06-10T14:26:31;30.80;41.90
45104;DHT22;30865;51.288;4.572;2023-06-10T14:28:58;31.20;41.20
45104;DHT22;30865;51.288;4.572;2023-06-10T14:31:23;31.80;40.70
45104;DHT22;30865;51.288;4.572;2023-06-10T14:33:49;32.40;39.80
45104;DHT22;30865;51.288;4.572;2023-06-10T14:36:14;31.80;40.80
45104;DHT22;30865;51.288;4.572;2023-06-10T14:38:40;31.90;40.50
45104;DHT22;30865;51.288;4.572;2023-06-10T14:41:05;32.10;40.30
45104;DHT22;30865;51.288;4.572;2023-06-10T14:43:31;32.40;38.80
45104;DHT22;30865;51.288;4.572;2023-06-10T14:45:56;31.50;39.20
45104;DHT22;30865;51.288;4.572;2023-06-10T14:48:22;32.70;38.80
45104;DHT22;30865;51.288;4.572;2023-06-10T14:50:48;32.20;39.00
45104;DHT22;30865;51.288;4.572;2023-06-10T14:53:17;32.70;39.40
45104;DHT22;30865;51.288;4.572;2023-06-10T14:55:43;33.50;37.80
45104;DHT22;30865;51.288;4.572;2023-06-10T14:58:08;33.20;37.50
45104;DHT22;30865;51.288;4.572;2023-06-10T15:00:34;32.90;38.80
45104;DHT22;30865;51.288;4.572;2023-06-10T15:02:59;32.70;38.40
45104;DHT22;30865;51.288;4.572;2023-06-10T15:05:25;32.60;38.90
45104;DHT22;30865;51.288;4.572;2023-06-10T15:07:50;31.70;39.60
45104;DHT22;30865;51.288;4.572;2023-06-10T15:10:16;31.10;40.80
45104;DHT22;30865;51.288;4.572;2023-06-10T15:12:41;32.10;40.20
45104;DHT22;30865;51.288;4.572;2023-06-10T15:15:07;32.80;38.40
45104;DHT22;30865;51.288;4.572;2023-06-10T15:17:33;32.30;38.80
45104;DHT22;30865;51.288;4.572;2023-06-10T15:19:58;32.60;38.70
45104;DHT22;30865;51.288;4.572;2023-06-10T15:22:24;33.00;37.70
45104;DHT22;30865;51.288;4.572;2023-06-10T15:24:49;34.00;35.70
45104;DHT22;30865;51.288;4.572;2023-06-10T15:27:15;32.90;37.20
45104;DHT22;30865;51.288;4.572;2023-06-10T15:29:43;32.50;38.20
45104;DHT22;30865;51.288;4.572;2023-06-10T15:32:11;32.60;39.60